Terminal Aerodrome Forecast
Issued by NWS Newport/Morehead City, NC

Home | Current Version | Previous Version | Text Only | Print | Product List | Glossary On
Versions: 1 2 3 4 5 6 7 8 9 10 11 12 13 14 15 16 17 18 19 20 21
000
FTUS42 KMHX 250200 AAA
TAFEWN
TAF AMD
KEWN 250239Z 2503/2524 22007KT P6SM VCSH SCT010 BKN060
     FM250800 20004KT 2SM BR VCSH OVC010
     FM251500 30007KT 5SM BR VCSH OVC015=

USA.gov is the U.S. government's official web portal to all federal, state and local government web resources and services.